createdAt,value
2019-04-06T00:04:55.812Z,50.10
2019-04-06T00:10:02.716Z,51.63
2019-04-06T00:15:09.762Z,51.47
2019-04-06T00:20:16.340Z,52.30
2019-04-06T00:25:22.879Z,49.27
2019-04-06T00:30:32.123Z,50.73
2019-04-06T00:35:40.148Z,50.10
2019-04-06T00:40:51.032Z,49.83
2019-04-06T00:45:58.117Z,49.17
2019-04-06T00:51:05.087Z,53.37
2019-04-06T00:56:13.243Z,50.10
2019-04-06T01:01:19.914Z,53.23
2019-04-06T01:06:26.772Z,52.70
2019-04-06T01:11:33.930Z,53.83
2019-04-06T01:16:41.213Z,50.37
2019-04-06T01:21:49.234Z,48.63
2019-04-06T01:26:56.308Z,48.53
2019-04-06T01:32:03.232Z,47.63
2019-04-06T01:37:10.418Z,48.17
2019-04-06T01:42:20.068Z,47.77
2019-04-06T01:47:28.479Z,49.00
2019-04-06T01:52:35.608Z,47.53
2019-04-06T01:57:43.827Z,46.23
2019-04-06T02:02:52.571Z,49.53
2019-04-06T02:07:59.238Z,46.80
2019-04-06T02:13:05.859Z,46.60
2019-04-06T02:18:12.655Z,47.00
2019-04-06T02:23:19.123Z,47.27
2019-04-06T02:28:27.446Z,47.03
2019-04-06T02:33:51.340Z,48.83
2019-04-06T02:39:00.637Z,45.90
2019-04-06T02:44:10.090Z,49.13
2019-04-06T02:49:18.262Z,46.97
2019-04-06T02:54:25.288Z,46.47
2019-04-06T02:59:32.473Z,45.33
2019-04-06T03:04:39.588Z,45.90
2019-04-06T03:09:47.612Z,44.60
2019-04-06T03:14:54.786Z,44.90
2019-04-06T03:20:02.469Z,44.63
2019-04-06T03:25:10.763Z,46.50
2019-04-06T03:30:18.529Z,44.77
2019-04-06T03:35:25.726Z,45.67
2019-04-06T03:40:31.704Z,44.17
2019-04-06T03:45:39.126Z,43.90
2019-04-06T03:50:47.268Z,45.97
2019-04-06T03:55:55.504Z,45.83
2019-04-06T04:01:02.422Z,42.90
2019-04-06T04:06:09.254Z,42.97
2019-04-06T04:11:17.275Z,43.33
2019-04-06T04:16:24.371Z,44.17
2019-04-06T04:21:30.544Z,42.10
2019-04-06T04:26:37.651Z,42.77
2019-04-06T04:31:44.732Z,42.57
2019-04-06T04:36:51.689Z,42.30
2019-04-06T04:41:58.621Z,41.10
2019-04-06T04:47:05.504Z,41.47
2019-04-06T04:52:12.383Z,40.70
2019-04-06T04:57:20.935Z,40.73
2019-04-06T05:02:29.266Z,41.03
2019-04-06T05:07:36.662Z,40.17
2019-04-06T05:12:43.253Z,40.47
2019-04-06T05:18:09.703Z,42.80
2019-04-06T05:23:20.358Z,42.93
2019-04-06T05:28:28.917Z,39.00
2019-04-06T05:33:36.253Z,41.70
2019-04-06T05:38:42.393Z,44.60
2019-04-06T05:43:52.059Z,46.17
2019-04-06T05:48:59.066Z,45.40
2019-04-06T05:54:06.026Z,46.60
2019-04-06T05:59:12.945Z,50.57
2019-04-06T06:04:21.470Z,51.53
2019-04-06T06:09:29.183Z,50.43
2019-04-06T06:14:35.299Z,52.07
2019-04-06T06:19:43.764Z,50.07
2019-04-06T06:24:50.446Z,46.67
2019-04-06T06:29:58.018Z,40.83
2019-04-06T06:35:07.979Z,35.43
2019-04-06T06:40:16.458Z,32.40
2019-04-06T06:45:24.935Z,31.00
2019-04-06T06:50:30.995Z,30.83
2019-04-06T06:55:39.160Z,30.03
2019-04-06T07:00:45.895Z,26.47
2019-04-06T07:05:53.810Z,27.17
2019-04-06T07:11:00.414Z,26.97
2019-04-06T07:16:08.218Z,24.47
2019-04-06T07:21:17.281Z,21.97
2019-04-06T07:26:24.631Z,20.43
2019-04-06T07:31:32.586Z,19.03
2019-04-06T07:36:40.949Z,18.37
2019-04-06T07:41:51.623Z,18.70
2019-04-06T07:46:59.378Z,19.17
2019-04-06T07:52:07.117Z,18.20
2019-04-06T07:57:14.930Z,18.27
2019-04-06T08:02:22.970Z,17.47
2019-04-06T08:07:30.477Z,17.90
2019-04-06T08:12:39.500Z,17.50
2019-04-06T08:17:46.465Z,15.40
2019-04-06T08:22:53.490Z,15.47
2019-04-06T08:27:59.649Z,14.87
2019-04-06T08:33:06.255Z,15.03
2019-04-06T08:38:14.071Z,16.27
2019-04-06T08:43:21.138Z,16.73
2019-04-06T08:48:27.144Z,17.00
2019-04-06T08:53:33.372Z,17.37
2019-04-06T08:58:40.845Z,16.73
2019-04-06T09:03:49.146Z,16.80
2019-04-06T09:08:57.604Z,16.43
2019-04-06T09:14:07.200Z,16.57
2019-04-06T09:19:15.682Z,15.97
2019-04-06T09:24:23.782Z,15.37
2019-04-06T09:29:31.120Z,15.40
2019-04-06T09:34:39.834Z,15.40
2019-04-06T09:39:46.417Z,14.00
2019-04-06T09:44:57.001Z,13.93
2019-04-06T09:50:18.969Z,23.50
2019-04-06T09:55:34.739Z,13.50
2019-04-06T10:00:58.530Z,15.10
2019-04-06T10:06:18.030Z,14.60
2019-04-06T10:11:42.945Z,16.10
2019-04-06T10:17:07.537Z,17.07
2019-04-06T10:22:35.838Z,15.23
2019-04-06T10:27:49.072Z,16.97
2019-04-06T10:33:10.720Z,16.27
2019-04-06T10:38:29.505Z,15.93
2019-04-06T10:43:37.149Z,17.23
2019-04-06T10:48:45.856Z,17.23
2019-04-06T10:54:03.685Z,17.90
2019-04-06T10:59:31.086Z,18.20
2019-04-06T11:04:47.152Z,18.93
2019-04-06T11:10:11.162Z,18.17
2019-04-06T11:15:21.235Z,18.03
2019-04-06T11:20:29.870Z,18.70
2019-04-06T11:25:50.371Z,19.70
2019-04-06T11:31:01.379Z,19.90
2019-04-06T11:36:12.565Z,20.07
2019-04-06T11:41:22.747Z,21.77
2019-04-06T11:46:35.987Z,20.83
2019-04-06T11:51:43.574Z,20.63
2019-04-06T11:57:03.467Z,21.60
2019-04-06T12:02:23.902Z,21.20
2019-04-06T12:07:35.379Z,23.33
2019-04-06T12:13:00.195Z,24.23
2019-04-06T12:18:26.857Z,23.60
2019-04-06T12:23:34.472Z,29.87
2019-04-06T12:28:59.565Z,22.03
2019-04-06T12:34:14.471Z,25.93
2019-04-06T12:39:51.397Z,27.47
2019-04-06T12:45:26.210Z,23.97
2019-04-06T12:50:50.537Z,22.23
2019-04-06T12:56:18.086Z,21.57
2019-04-06T13:01:27.739Z,21.03
2019-04-06T13:06:35.352Z,21.50
2019-04-06T13:11:56.213Z,21.40
2019-04-06T13:17:22.731Z,21.17
2019-04-06T13:22:47.539Z,20.33
2019-04-06T13:27:56.266Z,19.10
2019-04-06T13:33:20.437Z,16.80
2019-04-06T13:38:38.228Z,16.43
2019-04-06T13:44:03.256Z,16.20
2019-04-06T13:49:11.378Z,15.27
2019-04-06T13:54:26.258Z,17.70
2019-04-06T13:59:42.557Z,36.07
2019-04-06T14:04:59.702Z,16.83
2019-04-06T14:10:10.106Z,32.20
2019-04-06T14:15:19.911Z,17.00
2019-04-06T14:20:46.276Z,38.17
2019-04-06T14:25:55.113Z,18.33
2019-04-06T14:31:12.252Z,18.27
2019-04-06T14:36:36.654Z,19.10
2019-04-06T14:41:56.453Z,19.40
2019-04-06T14:47:20.857Z,19.00
2019-04-06T14:52:35.425Z,18.50
2019-04-06T14:58:03.705Z,18.77
2019-04-06T15:03:12.565Z,18.60
2019-04-06T15:08:37.798Z,17.90
2019-04-06T15:13:47.764Z,18.17
2019-04-06T15:19:11.533Z,18.73
2019-04-06T15:24:19.988Z,24.27
2019-04-06T15:29:35.334Z,65.20
2019-04-06T15:34:51.663Z,17.70
2019-04-06T15:40:01.398Z,17.17
2019-04-06T15:45:09.863Z,17.93
2019-04-06T15:50:24.329Z,19.10
2019-04-06T15:55:42.099Z,19.70
2019-04-06T16:00:51.973Z,18.63
2019-04-06T16:06:01.295Z,21.30
2019-04-06T16:11:09.756Z,31.97
2019-04-06T16:16:36.091Z,18.77
2019-04-06T16:21:50.659Z,19.43
2019-04-06T16:26:58.993Z,28.93
2019-04-06T16:32:12.760Z,19.93
2019-04-06T16:37:36.307Z,23.17
2019-04-06T16:42:46.033Z,39.10
2019-04-06T16:47:56.382Z,22.60
2019-04-06T16:53:11.845Z,21.57
2019-04-06T16:58:38.904Z,23.27
2019-04-06T17:04:02.278Z,21.60
2019-04-06T17:09:15.629Z,49.27
2019-04-06T17:14:39.307Z,23.67
2019-04-06T17:20:05.772Z,24.57
2019-04-06T17:25:25.976Z,27.60
2019-04-06T17:30:36.318Z,22.73
2019-04-06T17:36:04.138Z,26.93
2019-04-06T17:41:13.885Z,72.80
2019-04-06T17:46:36.868Z,32.73
2019-04-06T17:51:55.629Z,34.37
2019-04-06T17:57:10.325Z,21.97
2019-04-06T18:02:24.621Z,22.07
2019-04-06T18:07:40.495Z,19.83
2019-04-06T18:13:06.749Z,20.70
2019-04-06T18:18:16.308Z,19.23
2019-04-06T18:23:24.811Z,24.00
2019-04-06T18:28:34.128Z,23.13
2019-04-06T18:33:42.360Z,21.47
2019-04-06T18:38:55.939Z,20.00
2019-04-06T18:44:05.778Z,21.10
2019-04-06T18:49:14.536Z,20.37
2019-04-06T18:54:22.261Z,19.70
2019-04-06T18:59:32.446Z,20.77
2019-04-06T19:04:40.677Z,20.40
2019-04-06T19:09:49.930Z,21.53
2019-04-06T19:14:57.849Z,20.27
2019-04-06T19:20:08.085Z,19.90
2019-04-06T19:25:18.121Z,20.17
2019-04-06T19:30:27.047Z,21.40
2019-04-06T19:35:34.668Z,20.87
2019-04-06T19:40:43.807Z,20.30
2019-04-06T19:45:52.913Z,19.20
2019-04-06T19:51:01.168Z,19.23
2019-04-06T19:56:08.137Z,18.00
2019-04-06T20:01:16.928Z,19.23
2019-04-06T20:06:27.143Z,18.90
2019-04-06T20:11:38.130Z,18.70
2019-04-06T20:16:46.431Z,19.87
2019-04-06T20:21:54.714Z,17.80
2019-04-06T20:27:05.662Z,17.97
2019-04-06T20:32:14.328Z,16.50
2019-04-06T20:37:22.151Z,17.37
2019-04-06T20:42:30.483Z,16.97
2019-04-06T20:47:37.684Z,17.07
2019-04-06T20:52:45.999Z,15.23
2019-04-06T20:57:53.150Z,16.30
2019-04-06T21:03:05.184Z,16.37
2019-04-06T21:08:12.176Z,15.87
2019-04-06T21:13:18.746Z,15.53
2019-04-06T21:18:26.767Z,15.20
2019-04-06T21:23:36.611Z,14.27
2019-04-06T21:28:45.567Z,14.20
2019-04-06T21:33:53.785Z,14.97
2019-04-06T21:39:01.567Z,14.13
2019-04-06T21:44:11.223Z,14.60
2019-04-06T21:49:19.003Z,14.13
2019-04-06T21:54:26.590Z,14.33
2019-04-06T21:59:35.614Z,13.83
2019-04-06T22:04:42.951Z,13.67
2019-04-06T22:09:50.462Z,13.27
2019-04-06T22:14:58.131Z,13.97
2019-04-06T22:20:05.205Z,14.37
2019-04-06T22:25:12.221Z,12.97
2019-04-06T22:30:19.929Z,13.70
2019-04-06T22:35:27.068Z,13.50
2019-04-06T22:40:34.871Z,13.20
2019-04-06T22:45:43.730Z,13.83
2019-04-06T23:09:11.008Z,14.80
2019-04-06T23:14:18.248Z,14.43
2019-04-06T23:19:27.117Z,14.60
2019-04-06T23:24:34.987Z,15.00
2019-04-06T23:29:41.894Z,15.00
2019-04-06T23:34:57.778Z,15.20
2019-04-06T23:39:59.072Z,15.33
2019-04-06T23:45:08.252Z,15.33
2019-04-06T23:50:17.869Z,15.87
2019-04-06T23:55:26.188Z,17.43
